Time;durP1;ratioP1;P1;durP2;ratioP2;P2;SDS_P1;SDS_P2;PMS_P1;PMS_P2;Temp;Humidity;BMP_temperature;BMP_pressure;BME280_temperature;BME280_humidity;BME280_pressure;Samples;Min_cycle;Max_cycle;Signal;HPM_P1;HPM_P2
2021/03/25 00:00:43;;;;;;;28.13;16.83;;;9.00;99.90;;;;;;4989837;28;20436;-78
2021/03/25 00:03:14;;;;;;;25.60;15.30;;;9.10;99.90;;;;;;4994210;28;20482;-78
2021/03/25 00:05:40;;;;;;;28.30;15.07;;;9.20;99.90;;;;;;4995374;28;20515;-79
2021/03/25 00:08:07;;;;;;;26.40;16.13;;;9.20;99.90;;;;;;4985354;28;20447;-78
2021/03/25 00:10:36;;;;;;;23.83;14.50;;;9.20;99.90;;;;;;4979405;28;20795;-78
2021/03/25 00:13:04;;;;;;;29.20;16.07;;;9.20;99.90;;;;;;4995914;28;20435;-79
2021/03/25 00:15:30;;;;;;;24.63;14.90;;;9.10;99.90;;;;;;4978356;28;20425;-79
2021/03/25 00:17:56;;;;;;;28.77;16.00;;;9.10;99.90;;;;;;4978058;28;20461;-78
2021/03/25 00:20:22;;;;;;;28.67;15.10;;;9.00;99.90;;;;;;4987438;28;20432;-79
2021/03/25 00:22:48;;;;;;;32.77;15.87;;;8.70;99.90;;;;;;4988776;28;20200;-79
2021/03/25 00:25:17;;;;;;;25.80;15.30;;;8.70;99.90;;;;;;4994867;28;20421;-78
2021/03/25 00:27:43;;;;;;;35.13;16.67;;;8.70;99.90;;;;;;4978927;28;20524;-78
2021/03/25 00:30:11;;;;;;;28.53;15.73;;;8.70;99.90;;;;;;4990053;28;20488;-79
2021/03/25 00:32:37;;;;;;;31.40;15.90;;;8.80;99.90;;;;;;5017703;28;20197;-78
2021/03/25 00:35:04;;;;;;;28.20;15.83;;;8.80;99.90;;;;;;4997640;28;20500;-78
2021/03/25 00:37:30;;;;;;;33.77;17.20;;;8.80;99.90;;;;;;4998440;28;20488;-79
2021/03/25 00:39:55;;;;;;;28.00;16.63;;;8.90;99.90;;;;;;5023930;28;20466;-78
2021/03/25 00:42:21;;;;;;;31.83;16.10;;;8.70;99.90;;;;;;5015334;28;20181;-78
2021/03/25 00:44:46;;;;;;;26.73;16.00;;;8.60;99.90;;;;;;4986063;28;20195;-79
2021/03/25 00:47:12;;;;;;;25.30;15.30;;;8.70;99.90;;;;;;4980642;28;20185;-79
2021/03/25 00:49:38;;;;;;;28.20;15.63;;;8.70;99.90;;;;;;4979151;28;20802;-78
2021/03/25 00:52:04;;;;;;;26.80;14.60;;;8.70;99.90;;;;;;4976852;28;20173;-78
2021/03/25 00:54:29;;;;;;;24.47;14.90;;;8.70;99.90;;;;;;4990552;28;20177;-78
2021/03/25 00:56:55;;;;;;;25.37;16.50;;;8.70;99.90;;;;;;4973767;28;20524;-77
2021/03/25 00:59:20;;;;;;;28.97;17.37;;;8.60;99.90;;;;;;5014380;28;20344;-78
2021/03/25 01:01:46;;;;;;;30.77;15.67;;;8.70;99.90;;;;;;4996335;28;20562;-78
2021/03/25 01:04:12;;;;;;;24.60;13.83;;;8.70;99.90;;;;;;4995858;28;20177;-78
2021/03/25 01:06:37;;;;;;;30.40;16.27;;;8.70;99.90;;;;;;5015408;28;20540;-78
2021/03/25 01:09:21;;;;;;;27.27;15.07;;;8.40;99.90;;;;;;4987399;28;20201;-78
2021/03/25 01:11:47;;;;;;;24.13;15.30;;;8.20;99.90;;;;;;4984067;28;20201;-78
2021/03/25 01:14:13;;;;;;;23.60;15.60;;;8.10;99.90;;;;;;5011838;28;20858;-78
2021/03/25 01:16:41;;;;;;;30.63;15.70;;;8.00;99.90;;;;;;4984319;28;20183;-78
2021/03/25 01:19:16;;;;;;;28.03;16.27;;;7.90;99.90;;;;;;4995497;28;20872;-78
2021/03/25 01:21:42;;;;;;;24.00;15.10;;;7.70;99.90;;;;;;4976623;28;20937;-77
2021/03/25 01:24:09;;;;;;;27.10;15.60;;;7.80;99.90;;;;;;4975952;28;20416;-78
2021/03/25 01:26:34;;;;;;;32.90;16.40;;;7.90;99.90;;;;;;4980369;28;20791;-78
2021/03/25 01:29:00;;;;;;;32.93;15.80;;;7.90;99.90;;;;;;4988089;28;20442;-78
2021/03/25 01:31:27;;;;;;;33.80;15.40;;;7.90;99.90;;;;;;4990660;28;20639;-78
2021/03/25 01:33:53;;;;;;;26.00;15.40;;;8.00;99.90;;;;;;4994926;28;20498;-78
2021/03/25 01:36:19;;;;;;;26.07;14.27;;;7.90;99.90;;;;;;4977312;28;20428;-78
2021/03/25 01:38:45;;;;;;;25.77;14.33;;;7.70;99.90;;;;;;4975919;28;20239;-78
2021/03/25 01:41:10;;;;;;;24.83;14.77;;;7.60;99.90;;;;;;4974310;28;20496;-77
2021/03/25 01:43:40;;;;;;;21.87;13.27;;;7.60;99.90;;;;;;4977912;28;20186;-78
2021/03/25 01:46:24;;;;;;;31.27;15.97;;;7.60;99.90;;;;;;4994639;28;20250;-78
2021/03/25 01:49:02;;;;;;;25.13;14.27;;;7.60;99.90;;;;;;5009756;28;20451;-78
2021/03/25 01:51:58;;;;;;;26.00;15.40;;;7.60;99.90;;;;;;4988947;28;20910;-78
2021/03/25 01:54:52;;;;;;;26.87;13.80;;;7.60;99.90;;;;;;4983015;28;20814;-78
2021/03/25 01:57:55;;;;;;;24.13;15.27;;;7.50;99.90;;;;;;4990806;28;20919;-78
2021/03/25 02:00:23;;;;;;;26.63;15.80;;;7.50;99.90;;;;;;4990654;28;20420;-78
2021/03/25 02:03:15;;;;;;;24.43;14.73;;;7.50;99.90;;;;;;4985383;28;20432;-78
2021/03/25 02:05:50;;;;;;;24.80;13.47;;;7.40;99.90;;;;;;4976142;28;20420;-78
2021/03/25 02:08:33;;;;;;;25.33;15.47;;;7.40;99.90;;;;;;4979686;28;20546;-78
2021/03/25 02:11:44;;;;;;;26.03;17.00;;;7.20;99.90;;;;;;4987968;28;20506;-78
2021/03/25 02:14:28;;;;;;;23.60;13.47;;;7.10;99.90;;;;;;4987252;28;20539;-78
2021/03/25 02:17:15;;;;;;;25.40;14.87;;;7.20;99.90;;;;;;4990917;28;20433;-78
2021/03/25 02:20:05;;;;;;;31.20;15.17;;;7.30;99.90;;;;;;4987723;28;20449;-78
2021/03/25 02:22:50;;;;;;;24.13;14.67;;;7.40;99.90;;;;;;4990200;28;20448;-78
2021/03/25 02:25:23;;;;;;;25.40;13.40;;;7.40;99.90;;;;;;4984071;28;20424;-78
2021/03/25 02:28:13;;;;;;;21.30;14.50;;;7.40;99.90;;;;;;4994493;28;20468;-78
2021/03/25 02:30:44;;;;;;;24.00;13.87;;;7.40;99.90;;;;;;4995584;28;20424;-77
2021/03/25 02:33:16;;;;;;;25.90;15.60;;;7.10;99.90;;;;;;4985450;28;20435;-78
2021/03/25 02:35:48;;;;;;;25.37;14.33;;;6.70;99.90;;;;;;4995258;28;20518;-77
2021/03/25 02:38:20;;;;;;;26.30;16.50;;;6.80;99.90;;;;;;4988821;28;20511;-77
2021/03/25 02:41:00;;;;;;;20.20;13.37;;;6.90;99.90;;;;;;4989743;28;20480;-78
2021/03/25 02:43:31;;;;;;;27.10;16.17;;;6.90;99.90;;;;;;4992178;28;20813;-78
2021/03/25 02:46:12;;;;;;;21.20;13.60;;;6.90;99.90;;;;;;4980193;28;20420;-77
2021/03/25 02:48:42;;;;;;;27.43;14.27;;;7.00;99.90;;;;;;4985992;28;20448;-78
2021/03/25 02:51:37;;;;;;;27.03;14.40;;;6.90;99.90;;;;;;4991633;28;20434;-77
2021/03/25 02:54:03;;;;;;;28.53;14.30;;;6.80;99.90;;;;;;4983742;28;20424;-78
2021/03/25 02:56:37;;;;;;;24.63;15.77;;;6.80;99.90;;;;;;5020628;28;20475;-78
2021/03/25 02:59:25;;;;;;;28.27;15.60;;;6.90;99.90;;;;;;5018848;28;20483;-78
2021/03/25 03:01:57;;;;;;;21.90;15.77;;;7.00;99.90;;;;;;5013308;28;20978;-78
2021/03/25 03:04:29;;;;;;;22.47;13.83;;;7.00;99.90;;;;;;4987405;28;20464;-78
2021/03/25 03:07:05;;;;;;;22.50;13.57;;;7.10;99.90;;;;;;4983552;28;20433;-78
2021/03/25 03:09:35;;;;;;;19.67;12.70;;;7.10;99.90;;;;;;4992590;28;20440;-77
2021/03/25 03:12:05;;;;;;;23.87;12.93;;;7.00;99.90;;;;;;4992969;28;20433;-78
2021/03/25 03:14:42;;;;;;;21.93;13.47;;;7.00;99.90;;;;;;4988384;28;20433;-77
2021/03/25 03:17:14;;;;;;;30.10;13.70;;;7.00;99.90;;;;;;4985334;28;20456;-78
2021/03/25 03:19:55;;;;;;;19.63;13.13;;;6.90;99.90;;;;;;4975596;28;20449;-78
2021/03/25 03:22:21;;;;;;;22.70;13.07;;;6.90;99.90;;;;;;4977313;28;20408;-77
2021/03/25 03:24:49;;;;;;;22.90;12.90;;;6.70;99.90;;;;;;4990626;28;20429;-77
2021/03/25 03:27:16;;;;;;;31.70;15.17;;;6.70;99.90;;;;;;4979144;28;20188;-78
2021/03/25 03:29:44;;;;;;;19.90;13.73;;;6.70;99.90;;;;;;4984746;28;20977;-77
2021/03/25 03:32:21;;;;;;;23.27;14.17;;;6.60;99.90;;;;;;4963902;28;20428;-78
2021/03/25 03:34:48;;;;;;;18.47;12.30;;;6.60;99.90;;;;;;4977136;28;20464;-79
2021/03/25 03:37:30;;;;;;;23.07;13.37;;;6.60;99.90;;;;;;4975264;28;20460;-80
2021/03/25 03:39:57;;;;;;;19.90;13.80;;;6.70;99.90;;;;;;4977737;28;20443;-77
2021/03/25 03:42:26;;;;;;;25.13;13.60;;;6.80;99.90;;;;;;4977108;28;20452;-80
2021/03/25 03:44:55;;;;;;;19.30;12.20;;;6.80;99.90;;;;;;4985361;28;20433;-79
2021/03/25 03:47:23;;;;;;;23.57;14.50;;;6.70;99.90;;;;;;4975109;28;20393;-78
2021/03/25 03:50:01;;;;;;;30.03;14.73;;;6.70;99.90;;;;;;4990584;28;21132;-78
2021/03/25 03:52:32;;;;;;;18.47;12.87;;;6.50;99.90;;;;;;4986617;28;20424;-78
2021/03/25 03:55:00;;;;;;;23.23;13.20;;;6.60;99.90;;;;;;4973078;28;20432;-78
2021/03/25 03:57:48;;;;;;;27.30;14.97;;;6.70;99.90;;;;;;4989800;28;20823;-77
2021/03/25 04:00:31;;;;;;;26.23;13.83;;;6.70;99.90;;;;;;4976939;28;20417;-77
2021/03/25 04:03:10;;;;;;;19.97;12.60;;;6.80;99.90;;;;;;4981219;28;20933;-78
2021/03/25 04:05:43;;;;;;;21.90;12.80;;;6.70;99.90;;;;;;4992815;28;20523;-77
2021/03/25 04:08:25;;;;;;;19.97;12.27;;;6.70;99.90;;;;;;5013056;28;20452;-78
2021/03/25 04:11:03;;;;;;;21.70;13.03;;;6.70;99.90;;;;;;4992744;28;20993;-79
2021/03/25 04:13:35;;;;;;;25.67;14.80;;;6.60;99.90;;;;;;4985955;28;20823;-79
2021/03/25 04:16:01;;;;;;;23.80;12.90;;;6.60;99.90;;;;;;4986315;28;20427;-78
2021/03/25 04:18:29;;;;;;;26.73;12.97;;;6.70;99.90;;;;;;4993389;28;20478;-78
2021/03/25 04:21:07;;;;;;;23.00;13.17;;;6.70;99.90;;;;;;4978786;28;20181;-78
2021/03/25 04:23:35;;;;;;;21.80;11.27;;;6.70;99.90;;;;;;4984703;28;20419;-78
2021/03/25 04:26:10;;;;;;;25.07;12.90;;;6.70;99.90;;;;;;4973857;28;20778;-78
2021/03/25 04:28:46;;;;;;;19.53;12.13;;;6.70;99.90;;;;;;4973777;28;20433;-78
2021/03/25 04:31:11;;;;;;;20.90;12.30;;;6.80;99.90;;;;;;4972904;28;20455;-77
2021/03/25 04:33:38;;;;;;;19.03;12.03;;;6.90;99.90;;;;;;4975844;28;20417;-78
2021/03/25 04:36:32;;;;;;;25.40;13.70;;;6.90;99.90;;;;;;4973898;28;20174;-78
2021/03/25 04:38:59;;;;;;;23.63;13.07;;;7.00;99.90;;;;;;4973084;28;20500;-78
2021/03/25 04:41:25;;;;;;;30.30;15.07;;;7.00;99.90;;;;;;4976817;28;20401;-78
2021/03/25 04:43:59;;;;;;;20.60;12.70;;;7.00;99.90;;;;;;4976265;28;20918;-78
2021/03/25 04:47:05;;;;;;;22.67;12.83;;;7.10;99.90;;;;;;4977596;28;20428;-78
2021/03/25 04:49:46;;;;;;;26.17;14.27;;;7.20;99.90;;;;;;4991304;28;20436;-78
2021/03/25 04:52:19;;;;;;;18.87;11.80;;;7.20;99.90;;;;;;4973400;28;20420;-77
2021/03/25 04:54:44;;;;;;;16.03;11.53;;;7.20;99.90;;;;;;4974579;28;20444;-77
2021/03/25 04:57:31;;;;;;;18.73;12.40;;;7.30;99.90;;;;;;4975523;28;20457;-77
2021/03/25 05:00:03;;;;;;;22.13;14.03;;;7.30;99.90;;;;;;4973915;28;20189;-78
2021/03/25 05:02:32;;;;;;;24.00;13.90;;;7.20;99.90;;;;;;4974089;28;20413;-78
2021/03/25 05:05:00;;;;;;;25.97;14.93;;;7.30;99.90;;;;;;4980253;28;20421;-78
2021/03/25 05:07:29;;;;;;;40.83;21.57;;;7.30;99.90;;;;;;4976713;28;20422;-79
2021/03/25 05:09:55;;;;;;;25.37;17.97;;;7.30;99.90;;;;;;4975071;28;20452;-76
2021/03/25 05:12:21;;;;;;;28.47;14.60;;;7.30;99.90;;;;;;4968416;28;20782;-78
2021/03/25 05:14:49;;;;;;;30.80;16.80;;;7.40;99.90;;;;;;4955821;28;20410;-78
2021/03/25 05:17:29;;;;;;;33.67;17.77;;;7.40;99.90;;;;;;4973777;28;21043;-78
2021/03/25 05:20:23;;;;;;;37.33;21.97;;;7.50;99.90;;;;;;4973726;28;20449;-79
2021/03/25 05:23:26;;;;;;;37.30;20.50;;;7.60;99.90;;;;;;4991549;28;20846;-79
2021/03/25 05:26:15;;;;;;;46.30;25.27;;;7.60;99.90;;;;;;4974817;28;20487;-78
2021/03/25 05:28:46;;;;;;;45.67;26.37;;;7.70;99.90;;;;;;4973719;28;20449;-79
2021/03/25 05:31:14;;;;;;;48.20;27.40;;;7.80;99.90;;;;;;4974810;28;20472;-77
2021/03/25 05:33:41;;;;;;;57.07;30.67;;;7.90;99.90;;;;;;4975352;28;20448;-77
2021/03/25 05:36:11;;;;;;;69.67;37.43;;;7.90;99.90;;;;;;4982679;28;20444;-77
2021/03/25 05:38:38;;;;;;;60.30;38.37;;;8.00;99.90;;;;;;4974150;28;20515;-77
2021/03/25 05:41:06;;;;;;;75.17;43.83;;;8.10;99.90;;;;;;4973435;28;20472;-78
2021/03/25 05:43:52;;;;;;;63.63;42.73;;;8.10;99.90;;;;;;4973366;28;20409;-78
2021/03/25 05:46:25;;;;;;;76.87;43.47;;;8.20;99.90;;;;;;4975327;28;20980;-79
2021/03/25 05:49:04;;;;;;;68.87;42.70;;;8.10;99.90;;;;;;4977007;28;20432;-79
2021/03/25 05:51:45;;;;;;;72.43;45.37;;;8.10;99.90;;;;;;4976139;28;20429;-79
2021/03/25 05:54:42;;;;;;;75.77;47.87;;;8.10;99.90;;;;;;4974612;28;20495;-77
2021/03/25 05:57:25;;;;;;;81.70;46.60;;;8.10;99.90;;;;;;4956863;28;20440;-77
2021/03/25 05:59:54;;;;;;;79.23;47.20;;;8.00;99.90;;;;;;4986970;28;20516;-77
2021/03/25 06:02:36;;;;;;;88.07;46.87;;;8.10;99.90;;;;;;4973696;28;20455;-77
2021/03/25 06:05:04;;;;;;;82.57;46.20;;;8.10;99.90;;;;;;4984659;28;20450;-77
2021/03/25 06:07:50;;;;;;;75.00;47.97;;;8.00;99.90;;;;;;4992210;28;20466;-78
2021/03/25 06:10:22;;;;;;;78.37;45.07;;;8.10;99.90;;;;;;4992348;28;20415;-77
2021/03/25 06:13:18;;;;;;;69.80;44.07;;;8.10;99.90;;;;;;4991780;28;20428;-78
2021/03/25 06:16:05;;;;;;;78.03;45.00;;;8.10;99.90;;;;;;4983544;28;20903;-79
2021/03/25 06:18:47;;;;;;;74.30;44.40;;;8.20;99.90;;;;;;4980902;28;20466;-78
2021/03/25 06:21:30;;;;;;;73.33;43.97;;;8.20;99.90;;;;;;4986392;28;20442;-78
2021/03/25 06:24:30;;;;;;;76.17;43.30;;;8.30;99.90;;;;;;4980001;28;20443;-78
2021/03/25 06:27:01;;;;;;;69.97;42.90;;;8.30;99.90;;;;;;4986122;28;20515;-78
2021/03/25 06:29:32;;;;;;;73.80;41.00;;;8.30;99.90;;;;;;4989289;28;20432;-79
2021/03/25 06:32:26;;;;;;;74.40;43.53;;;8.30;99.90;;;;;;4974983;28;20484;-77
2021/03/25 06:35:03;;;;;;;68.40;41.63;;;8.30;99.90;;;;;;4975417;28;20432;-78
2021/03/25 06:37:35;;;;;;;70.33;41.50;;;8.40;99.90;;;;;;4965899;28;20505;-77
2021/03/25 06:40:26;;;;;;;67.03;41.07;;;8.30;99.90;;;;;;4986501;28;20534;-79
2021/03/25 06:43:24;;;;;;;73.97;42.00;;;8.40;99.90;;;;;;4994805;28;20515;-79
2021/03/25 06:46:18;;;;;;;68.37;40.13;;;8.40;99.90;;;;;;4968583;28;20445;-79
2021/03/25 06:48:56;;;;;;;70.90;41.07;;;8.50;99.90;;;;;;4971953;28;20815;-78
2021/03/25 06:51:23;;;;;;;77.50;40.70;;;8.60;99.90;;;;;;4974183;28;20432;-76
2021/03/25 06:54:02;;;;;;;74.70;41.47;;;8.70;99.90;;;;;;4977776;28;20531;-78
2021/03/25 06:56:37;;;;;;;70.87;42.30;;;8.80;99.90;;;;;;4980167;28;20441;-76
2021/03/25 06:59:09;;;;;;;71.90;42.70;;;8.80;99.90;;;;;;4985356;28;20514;-77
2021/03/25 07:01:41;;;;;;;71.67;43.57;;;8.90;99.90;;;;;;4981642;28;20460;-77
2021/03/25 07:04:23;;;;;;;72.40;42.57;;;9.00;99.90;;;;;;4988404;28;20436;-78
2021/03/25 07:06:50;;;;;;;68.67;42.73;;;9.00;99.90;;;;;;4992008;28;20801;-78
2021/03/25 07:09:17;;;;;;;64.37;40.03;;;9.20;99.90;;;;;;4982936;28;20545;-77
2021/03/25 07:11:43;;;;;;;64.03;39.70;;;9.40;99.90;;;;;;4975685;28;20440;-78
2021/03/25 07:14:16;;;;;;;63.07;41.37;;;9.50;99.90;;;;;;4975500;28;20442;-77
2021/03/25 07:16:47;;;;;;;66.87;38.60;;;9.60;99.90;;;;;;4978625;28;20437;-77
2021/03/25 07:19:14;;;;;;;60.40;41.00;;;9.70;99.90;;;;;;4987061;28;20471;-79
2021/03/25 07:21:45;;;;;;;74.03;42.43;;;9.80;99.90;;;;;;4975247;28;20524;-77
2021/03/25 07:24:34;;;;;;;63.83;39.87;;;9.80;99.90;;;;;;4978016;28;21074;-77
2021/03/25 07:27:12;;;;;;;58.60;36.23;;;10.00;99.90;;;;;;4995339;28;20392;-76
2021/03/25 07:29:40;;;;;;;54.07;36.77;;;10.10;99.90;;;;;;4976808;28;20479;-76
2021/03/25 07:32:06;;;;;;;59.70;34.20;;;10.30;99.90;;;;;;4974593;28;20981;-77
2021/03/25 07:34:50;;;;;;;64.20;35.57;;;10.40;99.90;;;;;;4990568;28;20425;-77
2021/03/25 07:37:32;;;;;;;57.17;34.03;;;10.50;99.90;;;;;;4986952;28;20208;-77
2021/03/25 07:40:01;;;;;;;56.47;34.97;;;10.80;99.90;;;;;;4984737;28;20547;-77
2021/03/25 07:42:33;;;;;;;49.07;32.73;;;11.10;99.90;;;;;;4986488;28;20428;-77
2021/03/25 07:45:22;;;;;;;50.37;32.40;;;11.30;99.90;;;;;;5026537;28;20415;-77
2021/03/25 07:47:48;;;;;;;57.97;34.00;;;11.40;99.90;;;;;;4993862;28;20886;-76
2021/03/25 07:50:31;;;;;;;46.67;33.50;;;11.60;99.90;;;;;;4981756;28;20441;-76
2021/03/25 07:52:57;;;;;;;48.03;33.57;;;11.60;99.90;;;;;;5013734;28;20436;-77
2021/03/25 07:55:31;;;;;;;51.60;32.23;;;11.60;99.90;;;;;;4989461;28;20444;-79
2021/03/25 07:57:58;;;;;;;53.00;30.50;;;11.60;99.90;;;;;;4999231;28;20467;-79
2021/03/25 08:00:27;;;;;;;44.40;30.07;;;11.60;99.90;;;;;;4994647;28;20440;-79
2021/03/25 08:03:17;;;;;;;46.03;32.03;;;11.60;99.90;;;;;;4988649;28;20985;-79
2021/03/25 08:05:45;;;;;;;52.13;31.60;;;11.70;99.90;;;;;;5020990;28;20432;-79
2021/03/25 08:08:27;;;;;;;50.80;32.10;;;11.80;99.90;;;;;;4996443;28;20518;-79
2021/03/25 08:11:13;;;;;;;49.57;30.27;;;12.00;99.90;;;;;;5000434;28;20436;-78
2021/03/25 08:13:47;;;;;;;52.30;31.40;;;12.30;99.90;;;;;;5027292;28;20459;-79
2021/03/25 08:16:15;;;;;;;54.27;28.33;;;12.70;99.90;;;;;;4981477;28;20432;-77
2021/03/25 08:19:03;;;;;;;40.13;30.47;;;13.20;99.90;;;;;;4984860;28;20554;-75
2021/03/25 08:21:37;;;;;;;45.70;30.97;;;13.70;99.90;;;;;;4990648;28;20435;-79
2021/03/25 08:24:28;;;;;;;50.67;33.17;;;14.10;99.90;;;;;;4994824;28;20519;-78
2021/03/25 08:26:53;;;;;;;46.00;32.03;;;14.40;99.90;;;;;;4978663;28;20433;-78
2021/03/25 08:29:33;;;;;;;43.70;29.20;;;14.70;99.90;;;;;;4972183;28;20455;-78
2021/03/25 08:32:14;;;;;;;43.93;30.90;;;14.80;99.90;;;;;;4977923;28;20251;-78
2021/03/25 08:35:01;;;;;;;45.60;31.90;;;14.80;99.90;;;;;;4989024;28;20445;-77
2021/03/25 08:38:00;;;;;;;44.00;29.17;;;15.20;99.90;;;;;;4974436;28;20453;-78
2021/03/25 08:40:41;;;;;;;45.70;28.33;;;15.60;99.90;;;;;;4988515;28;20487;-78
2021/03/25 08:43:33;;;;;;;47.07;29.23;;;15.90;99.90;;;;;;4984888;28;20432;-77
2021/03/25 08:46:18;;;;;;;40.80;30.43;;;16.40;99.90;;;;;;4985444;28;20436;-75
2021/03/25 08:48:59;;;;;;;45.83;29.67;;;16.90;99.90;;;;;;4992981;28;20467;-77
2021/03/25 08:51:37;;;;;;;44.53;31.00;;;17.20;99.90;;;;;;4978400;28;20424;-77
2021/03/25 08:54:24;;;;;;;54.33;32.93;;;17.80;99.90;;;;;;4974663;28;20964;-78
2021/03/25 08:56:57;;;;;;;43.10;31.90;;;18.00;99.90;;;;;;4977383;28;20530;-77
2021/03/25 08:59:35;;;;;;;46.53;33.87;;;18.40;99.90;;;;;;4972299;28;20484;-78
2021/03/25 09:02:28;;;;;;;44.03;31.50;;;18.60;99.90;;;;;;4975128;28;20443;-79
2021/03/25 09:05:06;;;;;;;42.03;31.33;;;19.00;99.90;;;;;;4985151;28;20468;-78
2021/03/25 09:07:33;;;;;;;45.10;33.57;;;19.10;99.90;;;;;;4972857;28;20449;-77
2021/03/25 09:10:04;;;;;;;51.00;34.00;;;19.10;99.90;;;;;;4978308;28;21335;-78
2021/03/25 09:12:32;;;;;;;44.37;35.90;;;18.70;99.90;;;;;;4981402;28;20428;-77
2021/03/25 09:15:01;;;;;;;50.93;33.20;;;19.00;99.90;;;;;;4984359;28;20818;-77
2021/03/25 09:17:35;;;;;;;37.60;28.90;;;19.40;99.90;;;;;;4982697;28;20809;-77
2021/03/25 09:20:06;;;;;;;35.13;27.17;;;19.40;99.90;;;;;;4973192;28;20805;-77
2021/03/25 09:22:57;;;;;;;38.97;28.07;;;19.50;99.90;;;;;;4979776;28;20952;-78
2021/03/25 09:25:25;;;;;;;47.23;33.37;;;19.70;99.90;;;;;;5005311;28;20447;-77
2021/03/25 09:28:00;;;;;;;40.87;32.97;;;19.70;99.90;;;;;;4977061;28;20441;-77
2021/03/25 09:30:40;;;;;;;44.53;34.30;;;19.40;99.90;;;;;;4974548;28;20464;-78
2021/03/25 09:33:45;;;;;;;43.77;32.90;;;19.80;99.90;;;;;;4998433;28;20518;-77
2021/03/25 09:36:17;;;;;;;44.60;33.67;;;20.30;99.90;;;;;;4972387;28;20440;-77
2021/03/25 09:38:58;;;;;;;45.20;35.00;;;20.70;99.90;;;;;;4972907;28;20468;-77
2021/03/25 09:41:30;;;;;;;46.43;34.97;;;21.00;99.90;;;;;;4970564;28;20487;-78
2021/03/25 09:44:27;;;;;;;50.43;34.90;;;21.50;99.90;;;;;;4972772;28;20848;-77
2021/03/25 09:46:58;;;;;;;43.00;35.53;;;21.70;99.10;;;;;;4974793;28;20432;-77
2021/03/25 09:49:46;;;;;;;45.53;36.50;;;21.70;98.30;;;;;;5001819;28;20460;-78
2021/03/25 09:52:21;;;;;;;36.07;30.87;;;21.50;96.20;;;;;;4983587;28;20431;-77
2021/03/25 09:54:49;;;;;;;40.30;31.90;;;21.50;96.50;;;;;;4974356;28;20436;-78
2021/03/25 09:57:34;;;;;;;38.20;30.43;;;21.70;96.10;;;;;;4978550;28;20862;-77
2021/03/25 10:00:00;;;;;;;39.40;31.77;;;21.50;93.40;;;;;;4983823;28;20460;-78
2021/03/25 10:02:41;;;;;;;43.13;33.20;;;21.50;92.70;;;;;;4981583;28;20429;-76
2021/03/25 10:05:25;;;;;;;44.10;34.87;;;21.70;93.20;;;;;;4983957;28;20435;-77
2021/03/25 10:07:55;;;;;;;37.23;31.10;;;21.40;94.20;;;;;;4993076;28;20433;-78
2021/03/25 10:10:29;;;;;;;40.27;32.87;;;21.30;95.70;;;;;;4975670;28;20893;-77
2021/03/25 10:13:33;;;;;;;40.47;32.43;;;21.10;95.50;;;;;;4976650;28;20937;-78
2021/03/25 10:16:36;;;;;;;45.43;33.00;;;21.20;96.70;;;;;;4988642;28;20423;-76
2021/03/25 10:19:10;;;;;;;44.47;33.30;;;21.00;95.30;;;;;;4991952;28;20482;-77
2021/03/25 10:21:45;;;;;;;47.90;35.00;;;21.10;95.70;;;;;;4976011;28;20790;-77
2021/03/25 10:24:19;;;;;;;47.83;33.40;;;21.30;96.20;;;;;;4981355;28;20508;-78
2021/03/25 10:26:47;;;;;;;48.10;35.80;;;21.30;95.60;;;;;;4977221;28;20423;-77
2021/03/25 10:29:36;;;;;;;43.87;36.30;;;21.40;94.10;;;;;;4982038;28;20799;-77
2021/03/25 10:32:10;;;;;;;54.90;36.17;;;21.20;93.80;;;;;;4980469;28;20846;-78
2021/03/25 10:34:41;;;;;;;48.37;35.63;;;21.20;94.80;;;;;;4976390;28;20434;-77
2021/03/25 10:37:25;;;;;;;45.83;34.30;;;21.10;94.00;;;;;;4979906;28;20432;-78
2021/03/25 10:40:00;;;;;;;43.70;33.33;;;21.10;95.40;;;;;;4979318;28;20452;-76
2021/03/25 10:42:41;;;;;;;38.00;31.63;;;21.20;95.50;;;;;;4988376;28;20443;-76
2021/03/25 10:45:21;;;;;;;36.23;28.87;;;21.40;95.40;;;;;;4980986;28;20932;-78
2021/03/25 10:47:56;;;;;;;37.63;30.70;;;21.60;94.70;;;;;;4980233;28;20435;-78
2021/03/25 10:50:39;;;;;;;44.80;33.00;;;21.10;95.00;;;;;;4978967;28;20940;-77
2021/03/25 10:53:10;;;;;;;35.70;29.37;;;21.60;94.90;;;;;;4994074;28;20534;-77
2021/03/25 10:55:40;;;;;;;39.43;29.50;;;21.50;93.70;;;;;;4974156;28;20948;-76
2021/03/25 10:58:16;;;;;;;37.20;29.30;;;21.80;93.30;;;;;;4972345;28;20459;-77
2021/03/25 11:00:42;;;;;;;33.80;28.07;;;21.60;92.50;;;;;;4975477;28;20906;-78
2021/03/25 11:03:38;;;;;;;35.93;29.70;;;21.30;92.50;;;;;;4975434;28;20524;-77
2021/03/25 11:06:05;;;;;;;40.87;29.30;;;22.10;93.70;;;;;;4973679;28;20196;-77
2021/03/25 11:08:41;;;;;;;42.00;32.23;;;22.50;92.10;;;;;;4974482;28;20444;-78
2021/03/25 11:11:15;;;;;;;39.70;28.83;;;22.50;91.70;;;;;;4975565;28;20980;-77
2021/03/25 11:13:42;;;;;;;35.30;30.40;;;22.70;91.20;;;;;;4982083;28;20433;-77
2021/03/25 11:16:18;;;;;;;34.40;29.93;;;21.80;90.40;;;;;;4974744;28;20429;-76
2021/03/25 11:18:56;;;;;;;31.47;26.43;;;21.50;90.70;;;;;;4970068;28;20567;-77
2021/03/25 11:21:36;;;;;;;28.53;24.57;;;22.10;92.80;;;;;;4974105;28;20498;-77
2021/03/25 11:24:22;;;;;;;27.67;23.40;;;22.40;91.30;;;;;;4975670;28;20492;-77
2021/03/25 11:26:52;;;;;;;28.63;22.30;;;22.70;90.60;;;;;;4974001;28;20436;-77
2021/03/25 11:29:28;;;;;;;30.80;21.50;;;22.90;90.70;;;;;;5007023;28;20953;-79
2021/03/25 11:32:16;;;;;;;26.10;21.40;;;22.60;87.30;;;;;;5007035;28;20443;-76
2021/03/25 11:34:43;;;;;;;25.87;20.10;;;21.90;90.70;;;;;;4977562;28;20429;-78
2021/03/25 11:37:22;;;;;;;22.00;16.47;;;22.50;88.90;;;;;;4978499;28;20823;-78
2021/03/25 11:40:12;;;;;;;24.00;18.20;;;22.30;88.10;;;;;;4987875;28;20820;-77
2021/03/25 11:42:39;;;;;;;21.90;16.90;;;22.20;88.20;;;;;;4976985;28;20500;-77
2021/03/25 11:45:06;;;;;;;21.80;17.10;;;22.30;87.30;;;;;;4979826;28;20709;-78
2021/03/25 11:47:31;;;;;;;24.37;16.90;;;22.40;87.50;;;;;;4985826;28;20417;-77
2021/03/25 11:49:57;;;;;;;21.70;16.53;;;22.50;87.70;;;;;;4977817;28;20486;-77
2021/03/25 11:52:22;;;;;;;19.93;17.30;;;22.20;86.60;;;;;;4977520;28;20260;-76
2021/03/25 11:55:01;;;;;;;27.30;19.93;;;22.20;86.50;;;;;;4976417;28;20185;-78
2021/03/25 11:57:35;;;;;;;24.50;17.87;;;21.90;90.40;;;;;;4976227;28;20205;-78
2021/03/25 12:00:06;;;;;;;25.63;18.60;;;22.00;90.30;;;;;;4975195;28;20447;-77
2021/03/25 12:02:33;;;;;;;25.37;18.70;;;22.00;90.30;;;;;;4976775;28;20432;-77
2021/03/25 12:05:39;;;;;;;26.43;16.60;;;22.50;89.60;;;;;;4992290;28;20429;-78
2021/03/25 12:08:14;;;;;;;20.83;16.40;;;22.50;89.50;;;;;;4975931;28;20498;-78
2021/03/25 12:10:41;;;;;;;26.13;17.20;;;22.60;85.80;;;;;;4976767;28;20416;-78
2021/03/25 12:13:07;;;;;;;19.53;14.60;;;22.60;84.90;;;;;;4978568;28;20483;-78
2021/03/25 12:15:33;;;;;;;20.37;16.13;;;22.40;87.10;;;;;;4987559;28;20447;-78
2021/03/25 12:18:04;;;;;;;21.40;15.40;;;22.80;86.50;;;;;;5009576;28;20452;-78
2021/03/25 12:20:33;;;;;;;25.77;14.50;;;22.50;82.10;;;;;;4983620;28;20654;-76
2021/03/25 12:23:20;;;;;;;19.13;14.87;;;22.80;85.00;;;;;;4974842;28;20405;-77
2021/03/25 12:25:48;;;;;;;15.37;13.77;;;22.50;80.80;;;;;;4977528;28;20436;-78
2021/03/25 12:28:15;;;;;;;20.60;14.83;;;22.40;81.90;;;;;;4978377;28;20453;-78
2021/03/25 12:30:41;;;;;;;15.40;12.53;;;22.70;82.40;;;;;;4978278;28;20429;-78
2021/03/25 12:33:14;;;;;;;18.30;13.00;;;22.70;83.00;;;;;;4978234;28;20421;-77
2021/03/25 12:35:39;;;;;;;19.70;13.60;;;22.70;83.30;;;;;;4977114;28;20421;-77
2021/03/25 12:38:04;;;;;;;16.47;13.83;;;22.30;82.80;;;;;;4978731;28;20475;-78
2021/03/25 12:40:30;;;;;;;17.40;13.80;;;22.50;84.10;;;;;;4976251;28;20515;-77
2021/03/25 12:42:56;;;;;;;19.13;13.80;;;22.00;83.90;;;;;;4974423;28;20178;-76
2021/03/25 12:45:22;;;;;;;20.60;13.87;;;21.90;85.80;;;;;;4974108;28;20174;-77
2021/03/25 12:47:47;;;;;;;18.57;13.57;;;21.90;86.10;;;;;;4977268;28;20425;-78
2021/03/25 12:50:13;;;;;;;20.77;14.40;;;21.70;85.50;;;;;;4976548;28;20184;-76
2021/03/25 12:52:39;;;;;;;16.63;13.27;;;21.60;85.50;;;;;;4975004;28;20181;-76
2021/03/25 12:55:05;;;;;;;18.27;13.00;;;21.10;87.70;;;;;;4977482;28;20251;-78
2021/03/25 12:57:30;;;;;;;18.73;13.57;;;21.00;88.10;;;;;;4977066;28;20209;-77
2021/03/25 12:59:59;;;;;;;18.00;13.97;;;20.70;90.30;;;;;;4977354;28;20544;-77
2021/03/25 13:02:25;;;;;;;19.80;16.17;;;20.60;90.30;;;;;;4976850;28;20189;-80
2021/03/25 13:04:50;;;;;;;23.63;15.63;;;19.70;88.60;;;;;;4992595;28;20421;-80
2021/03/25 13:07:16;;;;;;;18.47;14.53;;;19.90;90.90;;;;;;5009191;28;20180;-80
2021/03/25 13:09:41;;;;;;;15.07;13.50;;;19.90;91.50;;;;;;4977321;28;20248;-77
2021/03/25 13:12:16;;;;;;;20.33;14.97;;;19.90;90.70;;;;;;4975650;28;20212;-77